Estes Park, CO

11:58 PM MST on December 24, 2014 (GMT -0700)
Erie Municipal Airport | Change Station
CLOSE
Current Station
Airport
Location: Erie,
Elevation: 5128 ft
Nearby Weather Stations
Active Advisory: Winter Storm Warning

Elev 5128 ft 40.01 °N, 105.05 °W | Updated 3 minutes ago

Partly Cloudy
Partly Cloudy
49 °F
Feels Like 49 °F
N
16
Wind Variable Wind from WSW
Gusts 25 mph

Today
High -- | Low -- °F
--% Chance of Precip.
Yesterday
High -- | Low -- °F
Precip. -- in
7:23 AM 4:40 PM
Waxing Crescent, 14% visible
Pressure 29.43 in
Visibility 10.0 miles
Clouds
Dew Point 14 °F
Humidity 24%
Rainfall 0.00 in
Snow Depth Not available.
UV Not available.
Pollen .10 out of 12
Air Quality Not available.
Flu Activity Not available.
METAR KEIK 250655Z AUTO 25014G22KT 10SM 10/M10 A2943 RMK AO2 T00961101

More Conditions Fewer Conditions

Pressure 29.43 in
Visibility 10.0 miles
Clouds
Dew Point 14 °F
Humidity 24%
Rainfall 0.00 in
Snow Depth Not available.
UV Not available.
Pollen .10 out of 12
Air Quality Not available.
Flu Activity Not available.
METAR KEIK 250655Z AUTO 25014G22KT 10SM 10/M10 A2943 RMK AO2 T00961101

More Conditions Fewer Conditions

10-Day Weather Forecast

Almanac

Astronomy

Dec. 24, 2014 Rise Set
Actual Time
Civil Twilight
Nautical Twilight
Astronomical Twilight
Moon
Length of Visible Light
Length of Day
Tomorrow will be .
, % of the Moon is Illuminated

Today's Extremes

State Highs State Lows

Community

WunderPhotos

Upload Photos

1,780,249 photos uploaded!

WunderBlogs® & News

Nearby

Air Quality

  Air Quality AQ Index Pollutant
Not available.

Snow Depth

Station Depth Elevation

Earthquake Activity

City Distance Mag. Time & Date
Minimum magnitude displayed is 2.5.

Coastal Water Temperatures

Place Temperature

Nearby Weather Stations